Kiryat Shmone, Israel
Current Conditions -  °F | °C
As of 5:50 PM on Thursday 30 Oct 2014 (Local Time) from LLHA Reporting Station
Scattered Clouds Scattered Clouds  
Wind Chill: 73°   Ceiling: Unl
Heat Index: 73°   Visibility: 6mi
Dew Point: 57°   Wind: 6mph
Humidity: 57%   Direction: 290°WNW
Pressure: 29.91"   Gusts: NA
Location:  33.18°N, 35.57°E
Report Text: LLHA 301450Z 29005KT 270V340 9999 FEW030 SCT050 23/14 Q1013
Loading
Personal Weather Stations






























Interactive Weather Map
Tropical Storm Tracking
New forecast layout! Learn more

10-Day Weather Forecast

Advertisements
Track Severe Weather on mobile